• Join FlightAware (Why Join?)
  • Login
  • US Flag 
12:56AM EDT


 

Airport Tracker/Info


-or-


 

Live Flight TrackerFlight Track Log ✈ N813MK ✈ 12-Apr-2013 ✈ KSEE - KAVL

Flight Track Log - Related Links

Times and Time Zones

All times are in EDT time to prevent confusion due to time zone crossing. See the N813MK flight status page for this flight to view local times or setup timezone preferences in your user account.

Time Position Orientation Groundspeed Altitude Reporting Facility
EDT Latitude Longitude Course Direction KTS MPH feet Rate Location/Type
10:14AM 32.8500 -117.0167 360° North 160 184 1,900  Level Southern California TRACON
10:16AM 32.9419 -117.0161 360° North 227 261 5,500 1,920 Climbing Los Angeles Center
10:17AM 32.9761 -116.9408 62° Northeast 252 290 7,700 2,700 Climbing Los Angeles Center
10:18AM 33.0206 -116.8442 61° Northeast 271 312 11,100 2,520 Climbing Los Angeles Center
10:19AM 33.0633 -116.7525 61° Northeast 299 344 13,000 1,920 Climbing Los Angeles Center
10:20AM 33.1128 -116.6481 61° Northeast 342 394 15,100 2,160 Climbing Los Angeles Center
10:21AM 33.1794 -116.5503 51° Northeast 367 422 17,500 2,460 Climbing Los Angeles Center
10:22AM 33.2675 -116.4739 36° Northeast 384 442 20,300 2,820 Climbing Los Angeles Center
10:23AM 33.3558 -116.3983 36° Northeast 389 448 23,300 2,580 Climbing Los Angeles Center
10:24AM 33.4419 -116.3222 36° Northeast 385 443 25,700 1,740 Climbing Los Angeles Center
10:25AM 33.5331 -116.2442 36° Northeast 395 455 27,000 600 Climbing Los Angeles Center
10:26AM 33.6264 -116.1436 42° Northeast 454 522 27,000  Level Los Angeles Center
10:27AM 33.6750 -116.0047 67° East 454 522 27,100 960 Climbing Los Angeles Center
10:28AM 33.7281 -115.8375 69° East 449 517 29,000 900 Climbing Los Angeles Center
10:29AM 33.7736 -115.6864 70° East 476 548 29,000  Level Los Angeles Center
10:30AM 33.8197 -115.5325 70° East 488 562 29,000  Level Los Angeles Center
10:31AM 33.8658 -115.3800 70° East 486 559 29,000  Level Los Angeles Center
10:32AM 33.9111 -115.2283 70° East 484 557 29,000 300 Level Los Angeles Center
10:33AM 33.9458 -115.0736 75° East 482 555 29,700 1,260 Climbing Los Angeles Center
10:34AM 33.9744 -114.9139 78° East 487 560 31,600 2,340 Climbing Los Angeles Center
10:35AM 34.0089 -114.7250 78° East 480 552 34,500 2,340 Climbing Los Angeles Center
10:36AM 34.0364 -114.5722 78° East 465 535 36,500 1,740 Climbing Los Angeles Center
10:37AM 34.0639 -114.4217 78° East 461 531 38,100 1,200 Climbing Los Angeles Center
10:38AM 34.0869 -114.3094 76° East 472 543 38,800 1,020 Climbing Albuquerque Center
10:39AM 34.1150 -114.1394 79° East 466 536 40,000 840 Climbing Albuquerque Center
10:40AM 34.1411 -113.9872 78° East 465 535 40,600 480 Climbing Albuquerque Center
10:41AM 34.1667 -113.8339 79° East 465 535 41,000 180 Climbing Albuquerque Center
10:42AM 34.1947 -113.6747 78° East 470 541 41,000  Level Albuquerque Center
10:43AM 34.2231 -113.5086 78° East 486 559 41,000  Level Albuquerque Center
10:44AM 34.2506 -113.3464 78° East 492 566 41,000  Level Albuquerque Center
10:45AM 34.2831 -113.1522 78° East 491 565 41,000  Level Albuquerque Center
10:47AM 34.3137 -112.9584 79° East  Level FlightAware Approximate
10:47AM 34.3364 -112.8339 79° East 483 556 41,000  Level Albuquerque Center
10:48AM 34.3619 -112.6742 79° East 484 557 41,000  Level Albuquerque Center
10:49AM 34.3886 -112.5175 78° East 478 550 41,000  Level Albuquerque Center
10:50AM 34.4136 -112.3583 79° East 478 550 41,000  Level Albuquerque Center
10:51AM 34.4392 -112.1986 79° East 480 552 41,000  Level Albuquerque Center
10:53AM 34.4697 -112.0067 79° East 481 554 41,000  Level Albuquerque Center
10:54AM 34.4942 -111.8458 80° East 482 555 41,000  Level Albuquerque Center
10:55AM 34.5206 -111.6839 79° East 485 558 41,000  Level Albuquerque Center
10:56AM 34.5456 -111.5217 79° East 486 559 41,000  Level Albuquerque Center
10:57AM 34.5697 -111.3594 80° East 487 560 41,000  Level Albuquerque Center
10:58AM 34.5944 -111.1961 80° East 489 563 41,000  Level Albuquerque Center
10:59AM 34.6192 -111.0331 80° East 492 566 41,000  Level Albuquerque Center
11:00AM 34.6481 -110.8361 80° East 493 567 41,000  Level Albuquerque Center
11:01AM 34.6711 -110.6853 79° East 495 570 41,000  Level Albuquerque Center
11:02AM 34.6994 -110.5036 79° East 492 566 41,000  Level Albuquerque Center
11:03AM 34.7219 -110.3453 80° East 495 570 41,000  Level Albuquerque Center
11:04AM 34.7486 -110.1600 80° East 498 573 41,000  Level Albuquerque Center
11:05AM 34.7686 -109.9997 81° East 499 574 41,000  Level Albuquerque Center
11:06AM 34.7947 -109.8142 80° East 500 575 41,000  Level Albuquerque Center
11:07AM 34.8172 -109.6567 80° East 497 572 41,000  Level Albuquerque Center
11:08AM 34.8417 -109.4694 81° East 499 574 41,000  Level Albuquerque Center
11:09AM 34.8636 -109.3100 80° East 501 577 41,000  Level Albuquerque Center
11:10AM 34.8886 -109.1225 81° East 502 578 41,000  Level Albuquerque Center
11:11AM 34.9100 -108.9619 81° East 503 579 41,000  Level Albuquerque Center
11:12AM 34.9347 -108.7739 81° East 504 580 41,000  Level Albuquerque Center
11:13AM 34.9550 -108.6128 81° East 504 580 41,000  Level Albuquerque Center
11:14AM 34.9789 -108.4250 81° East 503 579 41,000  Level Albuquerque Center
11:15AM 35.0000 -108.2625 81° East 506 582 41,000  Level Albuquerque Center
11:16AM 35.0239 -108.0736 81° East 507 583 41,000  Level Albuquerque Center
11:17AM 35.0433 -107.9111 82° East 507 583 41,000  Level Albuquerque Center
11:18AM 35.0647 -107.7372 81° East 508 585 41,000  Level Albuquerque Center
11:19AM 35.0844 -107.5658 82° East 508 585 41,000  Level Albuquerque Center
11:20AM 35.1047 -107.3961 82° East 507 583 41,000  Level Albuquerque Center
11:21AM 35.1247 -107.2231 82° East 510 587 41,000  Level Albuquerque Center
11:23AM 35.1500 -107.0106 82° East 511 588 41,000  Level Albuquerque Center
11:24AM 35.1681 -106.8483 82° East 505 581 41,000  Level Albuquerque Center
11:25AM 35.1867 -106.6864 82° East 504 580 41,000  Level Albuquerque Center
11:26AM 35.2067 -106.4928 83° East 506 582 41,000  Level Albuquerque Center
11:27AM 35.2258 -106.3219 82° East 506 582 41,000  Level Albuquerque Center
11:28AM 35.2419 -106.1572 83° East 501 577 41,000  Level Albuquerque Center
11:29AM 35.2606 -105.9847 82° East 507 583 41,000  Level Albuquerque Center
11:30AM 35.2844 -105.7814 82° East 513 590 41,000  Level Albuquerque Center
11:31AM 35.3014 -105.6069 83° East 513 590 41,000  Level Albuquerque Center
11:32AM 35.3200 -105.4314 83° East 514 592 41,000  Level Albuquerque Center
11:33AM 35.3369 -105.2553 83° East 515 593 41,000  Level Albuquerque Center
11:34AM 35.3544 -105.0775 83° East 517 595 41,000  Level Albuquerque Center
11:35AM 35.3706 -104.9014 84° East 516 594 41,000  Level Albuquerque Center
11:36AM 35.3875 -104.7231 83° East 520 598 41,000  Level Albuquerque Center
11:37AM 35.4069 -104.5153 83° East 519 597 41,000  Level Albuquerque Center
11:38AM 35.4233 -104.3358 84° East 519 597 41,000  Level Albuquerque Center
11:39AM 35.4406 -104.1553 83° East 520 598 41,000  Level Albuquerque Center
11:40AM 35.4561 -103.9753 84° East 520 598 41,000  Level Albuquerque Center
11:41AM 35.4731 -103.7958 83° East 521 600 41,000  Level Albuquerque Center
11:42AM 35.4875 -103.6183 84° East 519 597 41,000  Level Albuquerque Center
11:43AM 35.5022 -103.4411 84° East 517 595 41,000  Level Albuquerque Center
11:44AM 35.5178 -103.2636 84° East 519 597 41,000  Level Albuquerque Center
11:45AM 35.5319 -103.0858 84° East 518 596 41,000 120 Level Albuquerque Center
11:46AM 35.5475 -102.9072 84° East 520 598 41,300 540 Climbing Albuquerque Center
11:47AM 35.5614 -102.7025 85° East 522 601 42,200 720 Climbing Albuquerque Center
11:48AM 35.5758 -102.5253 84° East 522 601 42,900 660 Climbing Albuquerque Center
11:49AM 35.5900 -102.3500 84° East 517 595 43,600 660 Climbing Albuquerque Center
11:50AM 35.6025 -102.1742 85° East 516 594 44,300 660 Climbing Albuquerque Center
11:51AM 35.6150 -102.0006 85° East 510 587 45,000 300 Climbing Albuquerque Center
11:52AM 35.6275 -101.8269 85° East 508 585 45,000  Level Albuquerque Center
11:54AM 35.6419 -101.6169 85° East 510 587 45,000  Level Albuquerque Center
11:55AM 35.6528 -101.4417 86° East 510 587 45,000  Level Albuquerque Center
11:56AM 35.6653 -101.2672 85° East 509 586 45,000  Level Albuquerque Center
11:57AM 35.6764 -101.0936 85° East 508 585 45,000  Level Albuquerque Center
11:58AM 35.6878 -100.9200 85° East 509 586 45,000  Level Albuquerque Center
11:59AM 35.6981 -100.7458 86° East 510 587 45,000  Level Albuquerque Center
12:00PM 35.7108 -100.5458 85° East 511 588 45,000  Level Albuquerque Center
12:01PM 35.7208 -100.3719 86° East 511 588 45,000  Level Albuquerque Center
12:02PM 35.7308 -100.1978 86° East 510 587 45,000  Level Albuquerque Center
12:03PM 35.7408 -100.0236 86° East 510 587 45,000  Level Albuquerque Center
12:04PM 35.7506 -99.8481 86° East 512 589 45,000  Level Albuquerque Center
12:05PM 35.7592 -99.6744 86° East 511 588 45,000  Level Albuquerque Center
12:06PM 35.7706 -99.4650 86° East 512 589 45,000  Level Albuquerque Center
12:06PM 35.7742 -99.3961 86° East 517 595 45,000  Level Fort Worth Center
12:07PM 35.7808 -99.2197 87° East 517 595 45,000  Level Fort Worth Center
12:08PM 35.7897 -99.0433 86° East 517 595 45,000  Level Fort Worth Center
12:09PM 35.7981 -98.8694 87° East 517 595 45,000  Level Fort Worth Center
12:10PM 35.8061 -98.6931 87° East 517 595 45,000  Level Fort Worth Center
12:13PM 35.8250 -98.2447 87° East 514 592 45,000  Level Kansas City Center
12:14PM 35.8311 -98.0683 88° East 513 590 45,000  Level Kansas City Center
12:15PM 35.8400 -97.8933 86° East 514 592 45,000  Level Kansas City Center
12:16PM 35.8472 -97.7178 87° East 513 590 45,000  Level Kansas City Center
12:17PM 35.8533 -97.5411 88° East 513 590 45,000  Level Kansas City Center
12:18PM 35.8592 -97.3642 88° East 513 590 45,000  Level Kansas City Center
12:19PM 35.8642 -97.1869 88° East 513 590 45,000  Level Kansas City Center
12:20PM 35.8706 -96.9750 88° East 514 592 45,000  Level Kansas City Center
12:21PM 35.8753 -96.7992 88° East 513 590 45,000  Level Kansas City Center
12:22PM 35.8800 -96.6233 88° East 512 589 45,000  Level Kansas City Center
12:23PM 35.8839 -96.4483 88° East 511 588 45,000  Level Kansas City Center
12:24PM 35.8883 -96.2983 88° East 512 589 45,000  Level Kansas City Center
12:25PM 35.8917 -96.1236 89° East 511 588 45,000  Level Kansas City Center
12:26PM 35.8958 -95.9503 88° East 510 587 45,000  Level Kansas City Center
12:27PM 35.9000 -95.7753 88° East 511 588 45,000  Level Kansas City Center
12:28PM 35.9039 -95.5656 89° East 513 590 45,000  Level Kansas City Center
12:29PM 35.9067 -95.3925 89° East 511 588 45,000  Level Kansas City Center
12:30PM 35.9103 -95.2183 88° East 512 589 45,000  Level Kansas City Center
12:31PM 35.9089 -95.0753 91° East 506 582 45,000  Level Memphis Center
12:32PM 35.9133 -94.8986 88° East 506 582 45,000  Level Memphis Center
12:33PM 35.9172 -94.7269 88° East 506 582 45,000  Level Memphis Center
12:34PM 35.9172 -94.5503 90° East 511 588 45,000  Level Memphis Center
12:35PM 35.9208 -94.3761 88° East 511 588 45,000  Level Memphis Center
12:36PM 35.9222 -94.2019 89° East 516 594 45,000  Level Memphis Center
12:37PM 35.9222 -94.0633 90° East 516 594 45,000  Level Memphis Center
12:38PM 35.9217 -93.8686 90° East 516 594 45,000  Level Memphis Center
12:39PM 35.9244 -93.6919 89° East 516 594 45,000  Level Memphis Center
12:40PM 35.9247 -93.5175 90° East 516 594 45,000  Level Memphis Center
12:41PM 35.9228 -93.3433 91° East 511 588 45,000  Level Memphis Center
12:42PM 35.9228 -93.1639 90° East 516 594 45,000  Level Memphis Center
12:43PM 35.9225 -92.9894 90° East 510 587 45,000  Level Memphis Center
12:44PM 35.9219 -92.8125 90° East 510 587 45,000  Level Memphis Center
12:45PM 35.9231 -92.6383 89° East 516 594 45,000  Level Memphis Center
12:46PM 35.9200 -92.4614 91° East 516 594 45,000  Level Memphis Center
12:47PM 35.9186 -92.2869 91° East 516 594 45,000  Level Memphis Center
12:48PM 35.9169 -92.1103 91° East 516 594 45,000  Level Memphis Center
12:49PM 35.9153 -91.9333 91° East 516 594 45,000  Level Memphis Center
12:50PM 35.9131 -91.7564 91° East 516 594 45,000  Level Memphis Center
12:51PM 35.9108 -91.5794 91° East 516 594 45,000  Level Memphis Center
12:52PM 35.9042 -91.4053 93° East 516 594 45,000  Level Memphis Center
12:53PM 35.8992 -91.2333 92° East 516 594 45,000  Level Memphis Center
12:54PM 35.8961 -91.0617 91° East 511 588 45,000  Level Memphis Center
12:55PM 35.8947 -90.8875 91° East 511 588 45,000  Level Memphis Center
12:56PM 35.8911 -90.7131 91° East 511 588 45,000  Level Memphis Center
12:57PM 35.8853 -90.5339 92° East 511 588 45,000  Level Memphis Center
12:58PM 35.8814 -90.3544 91° East 518 596 45,000  Level Memphis Center
12:59PM 35.8792 -90.1725 91° East 518 596 45,000  Level Memphis Center
01:00PM 35.8725 -89.9933 93° East 518 596 45,000  Level Memphis Center
01:01PM 35.8675 -89.8164 92° East 518 596 45,000  Level Memphis Center
01:02PM 35.8603 -89.6372 93° East 518 596 45,000  Level Memphis Center
01:03PM 35.8550 -89.4606 92° East 518 596 45,000  Level Memphis Center
01:04PM 35.8492 -89.2608 92° East 518 596 45,000  Level Memphis Center
01:05PM 35.8456 -89.0842 91° East 518 596 45,000  Level Memphis Center
01:06PM 35.8394 -88.9050 92° East 518 596 45,000  Level Memphis Center
01:07PM 35.8350 -88.7258 92° East 518 596 45,000  Level Memphis Center
01:08PM 35.8264 -88.5519 93° East 518 596 45,000  Level Memphis Center
01:09PM 35.8194 -88.3703 93° East 518 596 45,000  Level Memphis Center
01:10PM 35.8122 -88.1914 93° East 518 596 45,000  Level Memphis Center
01:11PM 35.8050 -88.0175 93° East 504 580 45,000 -120 Level Memphis Center
01:12PM 35.7950 -87.8361 94° East 516 594 44,800 -420 Descending Memphis Center
01:13PM 35.7869 -87.6522 93° East 531 611 44,200 -900 Descending Memphis Center
01:14PM 35.7767 -87.4681 94° East 537 618 43,100 -1,140 Descending Memphis Center
01:15PM 35.7683 -87.2972 93° East 542 624 42,000 -1,200 Descending Memphis Center
01:16PM 35.7594 -87.1106 93° East 542 624 40,700 -1,320 Descending Memphis Center
01:17PM 35.7481 -86.9192 94° East 555 639 39,400 -1,320 Descending Memphis Center
01:18PM 35.7383 -86.7278 94° East 555 639 38,100 -1,440 Descending Memphis Center
01:19PM 35.7286 -86.5364 94° East 555 639 36,500 -1,620 Descending Memphis Center
01:20PM 35.7164 -86.3478 95° East 555 639 34,900 -1,260 Descending Memphis Center
01:21PM 35.7061 -86.1617 94° East 550 633 34,000 -660 Descending Memphis Center
01:23PM 35.6850 -85.7953 94° East 545 627 33,000 -360 Descending Atlanta Center
01:24PM 35.6728 -85.6161 95° East 538 619 33,000  Level Atlanta Center
01:25PM 35.6603 -85.4369 95° East 533 613 33,000  Level Atlanta Center
01:26PM 35.6475 -85.2525 95° East 533 613 33,000 -480 Level Atlanta Center
01:27PM 35.6367 -85.0686 94° East 533 613 32,100 -1,380 Descending Atlanta Center
01:28PM 35.6236 -84.8844 95° East 544 626 30,300 -1,920 Descending Atlanta Center
01:29PM 35.6100 -84.7028 95° East 544 626 28,300 -2,040 Descending Atlanta Center
01:30PM 35.5964 -84.5214 95° East 531 611 26,300 -2,040 Descending Atlanta Center
01:31PM 35.5844 -84.3528 95° East 525 604 24,300 -1,560 Descending Atlanta Center
01:32PM 35.5700 -84.1792 96° East 511 588 23,200 -1,320 Descending Atlanta Center
01:33PM 35.5575 -84.0031 95° East 511 588 21,700 -1,500 Descending Atlanta Center
01:34PM 35.5428 -83.8422 96° East 498 573 20,200 -1,740 Descending Atlanta Center
01:35PM 35.5319 -83.6839 95° East 482 555 18,300 -2,100 Descending Atlanta Center
01:36PM 35.5189 -83.5311 96° East 459 528 16,100 -2,040 Descending Atlanta Center
01:37PM 35.5100 -83.3856 94° East 445 512 14,300 -1,800 Descending Atlanta Center
01:38PM 35.4944 -83.2456 98° East 424 488 12,500 -1,680 Descending Atlanta Center
01:39PM 35.4831 -83.1103 96° East 410 472 11,000 -780 Descending Atlanta Center
01:40PM 35.4758 -82.9906 94° East 376 433 11,000 -480 Level Atlanta Center
01:41PM 35.4644 -82.8861 98° East 326 375 10,100 -1,440 Descending Atlanta Center
01:43PM 35.4481 -82.6903 96° East 302 348 6,800 -1,620 Descending Atlanta Center
01:44PM 35.4322 -82.5858 101° East 288 331 5,300 -1,500 Descending Atlanta Center
01:50PM 35.4362 -82.5418 101° East  Level Estimated